Colonia, Uruguay

7:15 PM UYT on February 08, 2016 (GMT -0300)
Puerto de Colonia (ROU) | | Change Station
CLOSE
Current Station
Personal Weather Station
Location: Colonia Del Sacramento, DEPARTAMENTO DE COLONIA
Elevation: 0 ft
Nearby Weather Stations

Elev 0 ft 34.46 °S, 57.83 °W | Updated 4 seconds ago

Overcast
Overcast
73.6 °F
Feels Like 77 °F
N
11.2
Wind Variable Wind from NW
Gusts 12.3 mph

Today
High -- | Low -- °F
--% Chance of Precip.
Yesterday
High -- | Low -- °F
Precip. -- in
Pressure 29.71 in
Visibility 6.2 miles
Clouds Scattered Clouds 3000 ft
Mostly Cloudy 6000 ft
Heat Index 77 °F
Dew Point 51 °F
Humidity 45%
Rainfall 0.00 in
Snow Depth Not available.
6:18 AM 7:51 PM
New Moon, 0% visible
METAR SUCA 082200Z 06008KT 9999 -RA SCT030 BKN060 23/21 Q1006
Pressure 29.71 in
Visibility 6.2 miles
Clouds Scattered Clouds 3000 ft
Mostly Cloudy 6000 ft
Heat Index 77 °F
Dew Point 51 °F
Humidity 45%
Rainfall 0.00 in
Snow Depth Not available.
6:18 AM 7:51 PM
New Moon, 0% visible
METAR SUCA 082200Z 06008KT 9999 -RA SCT030 BKN060 23/21 Q1006

10-Day Weather Forecast

No radar image for this location.
×

Almanac

Astronomy

Feb. 08, 2016 Rise Set
Actual Time
Civil Twilight
Nautical Twilight
Astronomical Twilight
Moon
Length of Visible Light
Length of Day
Tomorrow will be .
, % of the Moon is Illuminated

Today's Extremes

Country Highs Country Lows

Community

WunderPhotos

Upload Photos

1,891,516 photos uploaded!

WunderBlog® & News

Nearby

Air Quality

  Air Quality AQ Index Pollutant
Not available.

Snow Depth

Station Depth Elevation

Earthquake Activity

City Distance Mag. Time & Date
Minimum magnitude displayed is 2.5.

Coastal Water Temperatures

Place Temperature

Stations

Nearby Weather Stations

Station Location Temp. Windchill Dew Point Humidity Wind Precip. Elev Updated Type